createdAt,value
2023-05-04T00:00:34.135Z,1.04
2023-05-04T00:01:34.232Z,1.04
2023-05-04T00:02:34.430Z,1.04
2023-05-04T00:03:34.591Z,1.04
2023-05-04T00:04:34.745Z,1.04
2023-05-04T00:05:34.793Z,1.04
2023-05-04T00:06:34.948Z,1.04
2023-05-04T00:07:35.132Z,1.04
2023-05-04T00:08:35.230Z,1.04
2023-05-04T00:09:35.353Z,1.04
2023-05-04T00:10:35.519Z,1.04
2023-05-04T00:11:35.661Z,1.04
2023-05-04T00:12:35.886Z,1.04
2023-05-04T00:13:35.900Z,1.04
2023-05-04T00:14:36.510Z,1.04
2023-05-04T00:15:36.213Z,1.04
2023-05-04T00:16:36.411Z,1.04
2023-05-04T00:17:36.541Z,1.04
2023-05-04T00:18:36.669Z,1.04
2023-05-04T00:19:36.837Z,1.04
2023-05-04T00:20:36.943Z,1.04
2023-05-04T00:21:37.080Z,1.04
2023-05-04T00:22:37.235Z,1.04
2023-05-04T00:23:37.370Z,1.04
2023-05-04T00:24:37.519Z,1.04
2023-05-04T00:25:37.670Z,1.04
2023-05-04T00:26:37.842Z,1.04
2023-05-04T00:27:38.008Z,1.04
2023-05-04T00:28:38.154Z,1.04
2023-05-04T00:29:38.684Z,1.04
2023-05-04T00:30:38.386Z,1.04
2023-05-04T00:31:38.560Z,1.04
2023-05-04T00:32:38.650Z,1.04
2023-05-04T00:33:38.795Z,1.04
2023-05-04T00:34:38.949Z,1.04
2023-05-04T00:35:39.089Z,1.04
2023-05-04T00:36:39.259Z,1.04
2023-05-04T00:37:39.398Z,1.04
2023-05-04T00:38:39.769Z,1.04
2023-05-04T00:39:39.707Z,1.04
2023-05-04T00:40:39.850Z,1.04
2023-05-04T00:41:39.978Z,1.04
2023-05-04T00:42:40.112Z,1.04
2023-05-04T00:43:40.212Z,1.04
2023-05-04T00:44:40.894Z,1.04
2023-05-04T00:45:40.481Z,1.04
2023-05-04T00:46:40.665Z,1.04
2023-05-04T00:47:40.786Z,1.04
2023-05-04T00:48:40.816Z,1.04
2023-05-04T00:49:40.997Z,1.04
2023-05-04T00:50:41.071Z,1.04
2023-05-04T00:51:41.163Z,1.04
2023-05-04T00:52:41.328Z,1.04
2023-05-04T00:53:41.482Z,1.04
2023-05-04T00:54:41.618Z,1.04
2023-05-04T00:55:41.775Z,1.04
2023-05-04T00:56:41.925Z,1.04
2023-05-04T00:57:42.108Z,1.04
2023-05-04T00:58:42.247Z,1.04
2023-05-04T00:59:43.094Z,1.04
2023-05-04T01:00:42.601Z,1.04
2023-05-04T01:01:42.700Z,1.04
2023-05-04T01:02:42.886Z,1.04
2023-05-04T01:03:43.047Z,1.04
2023-05-04T01:04:43.159Z,1.04
2023-05-04T01:05:43.315Z,1.04
2023-05-04T01:06:43.453Z,1.04
2023-05-04T01:07:43.598Z,1.04
2023-05-04T01:08:43.754Z,1.04
2023-05-04T01:09:43.921Z,1.04
2023-05-04T01:10:44.066Z,1.04
2023-05-04T01:11:44.207Z,1.04
2023-05-04T01:12:44.422Z,1.04
2023-05-04T01:13:44.464Z,1.04
2023-05-04T01:14:45.266Z,1.04
2023-05-04T01:15:44.785Z,1.04
2023-05-04T01:16:45.647Z,1.04
2023-05-04T01:18:45.921Z,1.04
2023-05-04T01:19:45.364Z,1.04
2023-05-04T01:20:45.558Z,1.04
2023-05-04T01:21:45.675Z,1.04
2023-05-04T01:22:45.831Z,1.04
2023-05-04T01:23:45.988Z,1.04
2023-05-04T01:24:46.141Z,1.04
2023-05-04T01:25:46.250Z,1.04
2023-05-04T01:26:46.392Z,1.04
2023-05-04T01:27:46.548Z,1.04
2023-05-04T01:28:46.673Z,1.04
2023-05-04T01:29:47.311Z,1.04
2023-05-04T01:30:46.984Z,1.04
2023-05-04T01:31:47.024Z,1.04
2023-05-04T01:32:47.281Z,1.04
2023-05-04T01:33:47.353Z,1.04
2023-05-04T01:34:47.501Z,1.04
2023-05-04T01:35:47.658Z,1.04
2023-05-04T01:36:47.800Z,1.04
2023-05-04T01:37:47.953Z,1.04
2023-05-04T01:38:48.112Z,1.04
2023-05-04T01:39:48.252Z,1.04
2023-05-04T01:40:48.408Z,1.04
2023-05-04T01:41:48.553Z,1.04
2023-05-04T01:42:48.714Z,1.04
2023-05-04T01:43:48.847Z,1.04
2023-05-04T01:44:49.561Z,1.04
2023-05-04T01:45:49.207Z,1.04
2023-05-04T01:46:49.317Z,1.04
2023-05-04T01:47:49.497Z,1.04
2023-05-04T01:48:49.570Z,1.04
2023-05-04T01:49:49.718Z,1.04
2023-05-04T01:50:49.805Z,1.04
2023-05-04T01:51:49.949Z,1.04
2023-05-04T01:52:50.050Z,1.04
2023-05-04T01:53:50.232Z,1.04
2023-05-04T01:54:50.356Z,1.04
2023-05-04T01:55:50.983Z,1.04
2023-05-04T01:56:50.667Z,1.04
2023-05-04T01:57:50.780Z,1.04
2023-05-04T01:58:50.882Z,1.04
2023-05-04T01:59:51.482Z,1.04
2023-05-04T02:00:51.212Z,1.04
2023-05-04T02:01:51.459Z,1.04
2023-05-04T02:02:51.568Z,1.04
2023-05-04T02:03:51.758Z,1.04
2023-05-04T02:04:51.794Z,1.04
2023-05-04T02:05:51.887Z,1.04
2023-05-04T02:06:52.033Z,1.04
2023-05-04T02:07:52.142Z,1.04
2023-05-04T02:08:52.309Z,1.04
2023-05-04T02:09:52.433Z,1.04
2023-05-04T02:10:52.601Z,1.04
2023-05-04T02:11:52.746Z,1.04
2023-05-04T02:12:52.937Z,1.04
2023-05-04T02:13:53.064Z,1.04
2023-05-04T02:14:53.655Z,1.04
2023-05-04T02:15:53.356Z,1.04
2023-05-04T02:16:53.408Z,1.04
2023-05-04T02:17:53.633Z,1.04
2023-05-04T02:18:53.716Z,1.04
2023-05-04T02:19:53.857Z,1.04
2023-05-04T02:20:54.014Z,1.04
2023-05-04T02:21:54.130Z,1.04
2023-05-04T02:22:54.260Z,1.04
2023-05-04T02:23:54.439Z,1.04
2023-05-04T02:24:54.593Z,1.04
2023-05-04T02:25:54.686Z,1.04
2023-05-04T02:26:54.825Z,1.04
2023-05-04T02:27:54.985Z,1.04
2023-05-04T02:28:55.131Z,1.04
2023-05-04T02:29:55.667Z,1.04
2023-05-04T02:30:55.409Z,1.04
2023-05-04T02:31:55.555Z,1.04
2023-05-04T02:32:55.741Z,1.04
2023-05-04T02:33:55.799Z,1.04
2023-05-04T02:34:55.951Z,1.04
2023-05-04T02:35:56.115Z,1.04
2023-05-04T02:36:56.253Z,1.04
2023-05-04T02:37:56.383Z,1.04
2023-05-04T02:38:56.537Z,1.04
2023-05-04T02:39:56.698Z,1.04
2023-05-04T02:40:56.813Z,1.04
2023-05-04T02:41:56.966Z,1.04
2023-05-04T02:42:57.111Z,1.04
2023-05-04T02:43:57.211Z,1.04
2023-05-04T02:44:57.811Z,1.04
2023-05-04T02:45:57.532Z,1.04
2023-05-04T02:46:57.650Z,1.04
2023-05-04T02:47:57.851Z,1.04
2023-05-04T02:48:57.985Z,1.04
2023-05-04T02:49:58.142Z,1.04
2023-05-04T02:50:58.231Z,1.04
2023-05-04T02:51:58.334Z,1.04
2023-05-04T02:52:58.465Z,1.04
2023-05-04T02:53:58.632Z,1.04
2023-05-04T02:54:58.734Z,2
2023-05-04T02:55:58.827Z,2
2023-05-04T02:56:58.975Z,2
2023-05-04T02:57:59.130Z,2
2023-05-04T02:58:59.285Z,2
2023-05-04T02:59:59.917Z,3.04
2023-05-04T03:00:59.610Z,3.04
2023-05-04T03:01:59.691Z,3.04
2023-05-04T03:02:59.903Z,4
2023-05-04T03:04:00.054Z,4
2023-05-04T03:05:00.127Z,5.04
2023-05-04T03:06:00.244Z,6
2023-05-04T03:07:00.406Z,6
2023-05-04T03:08:00.551Z,8
2023-05-04T03:09:00.735Z,9.04
2023-05-04T03:10:00.867Z,10
2023-05-04T03:11:01.027Z,12
2023-05-04T03:12:01.163Z,13.04
2023-05-04T03:13:01.317Z,16
2023-05-04T03:14:01.451Z,18
2023-05-04T03:15:02.186Z,21.04
2023-05-04T03:16:01.760Z,25.04
2023-05-04T03:17:01.828Z,29.04
2023-05-04T03:18:02.005Z,33.04
2023-05-04T03:19:02.092Z,39.04
2023-05-04T03:20:02.426Z,45.04
2023-05-04T03:21:02.370Z,101.04
2023-05-04T03:22:02.537Z,118
2023-05-04T03:23:02.689Z,134
2023-05-04T03:24:02.859Z,150
2023-05-04T03:25:02.990Z,174.08
2023-05-04T03:26:03.138Z,195.04
2023-05-04T03:27:03.323Z,218.08
2023-05-04T03:28:03.424Z,248
2023-05-04T03:29:03.536Z,274.08
2023-05-04T03:30:04.450Z,302.08
2023-05-04T03:31:03.833Z,341.12
2023-05-04T03:32:04.053Z,372.16
2023-05-04T03:33:04.104Z,407.04
2023-05-04T03:34:04.220Z,451.2
2023-05-04T03:35:04.364Z,488
2023-05-04T03:36:04.501Z,537.28
2023-05-04T03:37:04.655Z,580.16
2023-05-04T03:38:04.793Z,623.04
2023-05-04T03:39:04.941Z,671.36
2023-05-04T03:40:05.156Z,734.08
2023-05-04T03:41:05.187Z,788.48
2023-05-04T03:42:05.350Z,842.24
2023-05-04T03:43:05.520Z,900.48
2023-05-04T03:44:05.653Z,971.52
2023-05-04T03:45:06.331Z,1033.6
2023-05-04T03:46:05.949Z,1100.16
2023-05-04T03:47:06.039Z,1182.08
2023-05-04T03:48:06.162Z,1245.44
2023-05-04T03:49:06.340Z,1295.36
2023-05-04T03:50:06.761Z,1431.04
2023-05-04T03:51:06.691Z,1511.68
2023-05-04T03:52:06.807Z,1619.2
2023-05-04T03:53:06.932Z,1713.92
2023-05-04T03:54:07.076Z,1800.96
2023-05-04T03:55:07.224Z,1898.24
2023-05-04T03:56:07.316Z,2018.56
2023-05-04T03:57:07.479Z,2115.84
2023-05-04T03:58:07.568Z,2256.64
2023-05-04T03:59:07.746Z,2374.4
2023-05-04T04:00:08.328Z,2657.28
2023-05-04T04:01:08.046Z,2882.56
2023-05-04T04:02:08.207Z,3187.2
2023-05-04T04:03:08.431Z,4103.68
2023-05-04T04:04:08.525Z,4935.68
2023-05-04T04:05:08.648Z,5657.6
2023-05-04T04:06:08.795Z,7132.16
2023-05-04T04:07:08.953Z,8151.04
2023-05-04T04:08:09.102Z,8785.92
2023-05-04T04:09:09.240Z,9267.2
2023-05-04T04:10:09.349Z,9753.6
2023-05-04T04:11:09.490Z,10327.04
2023-05-04T04:12:09.647Z,10854.399
2023-05-04T04:13:09.907Z,11560.96
2023-05-04T04:14:09.923Z,12247.04
2023-05-04T04:15:10.504Z,12779.52
2023-05-04T04:16:10.283Z,14080
2023-05-04T04:17:10.358Z,14704.64
2023-05-04T04:18:10.507Z,15278.08
2023-05-04T04:19:10.667Z,15841.279
2023-05-04T04:20:10.817Z,16496.64
2023-05-04T04:21:10.973Z,17162.24
2023-05-04T04:22:11.113Z,17827.84
2023-05-04T04:23:11.259Z,18647.04
2023-05-04T04:24:11.383Z,19845.12
2023-05-04T04:25:11.537Z,20807.68
2023-05-04T04:26:11.706Z,21667.84
2023-05-04T04:27:11.834Z,22753.28
2023-05-04T04:28:11.972Z,23388.16
2023-05-04T04:29:12.131Z,24186.88
2023-05-04T04:30:12.779Z,25108.48
2023-05-04T04:31:12.455Z,26132.48
2023-05-04T04:32:12.534Z,27566.08
2023-05-04T04:33:12.617Z,28344.32
2023-05-04T04:34:12.798Z,29102.08
2023-05-04T04:35:12.953Z,29757.44
2023-05-04T04:36:13.113Z,30289.92
2023-05-04T04:37:13.240Z,30801.92
2023-05-04T04:38:13.394Z,31272.96
2023-05-04T04:39:13.623Z,31600.64
2023-05-04T04:40:13.708Z,30801.92
2023-05-04T04:41:13.857Z,30494.72
2023-05-04T04:42:13.956Z,29634.56
2023-05-04T04:43:14.130Z,28835.84
2023-05-04T04:44:14.204Z,29696
2023-05-04T04:45:14.810Z,30720
2023-05-04T04:46:14.580Z,31232
2023-05-04T04:47:14.605Z,31887.36
2023-05-04T04:48:14.770Z,32768
2023-05-04T04:49:14.922Z,33259.52
2023-05-04T04:50:15.057Z,33873.92
2023-05-04T04:51:15.212Z,34775.04
2023-05-04T04:53:15.473Z,36597.76
2023-05-04T04:54:15.667Z,37724.16
2023-05-04T04:55:15.775Z,38625.28
2023-05-04T04:56:15.919Z,39628.8
2023-05-04T04:57:16.081Z,40591.36
2023-05-04T04:58:16.242Z,41267.2
2023-05-04T04:59:16.361Z,41943.04
2023-05-04T05:00:16.936Z,42557.44
2023-05-04T05:01:16.667Z,43253.76
2023-05-04T05:02:16.768Z,44277.76
2023-05-04T05:03:17.034Z,41738.24
2023-05-04T05:04:17.154Z,45015.04
2023-05-04T05:05:17.320Z,45506.56
2023-05-04T05:06:17.398Z,45424.64
2023-05-04T05:07:17.542Z,43950.08
2023-05-04T05:08:17.684Z,46407.68
2023-05-04T05:09:17.794Z,36290.56
2023-05-04T05:10:17.950Z,40304.64
2023-05-04T05:11:18.104Z,49274.88
2023-05-04T05:12:18.254Z,50421.76
2023-05-04T05:13:18.434Z,51036.16
2023-05-04T05:14:18.557Z,51896.32
2023-05-04T05:15:19.204Z,48865.28
2023-05-04T05:16:18.885Z,52756.48
2023-05-04T05:17:18.977Z,54026.24
2023-05-04T05:18:19.115Z,54763.52
2023-05-04T05:19:19.186Z,55296
2023-05-04T05:20:19.326Z,55459.84
2023-05-04T05:21:19.443Z,55664.64
2023-05-04T05:22:19.535Z,48701.44
2023-05-04T05:23:19.639Z,54190.08
2023-05-04T05:24:19.800Z,55582.72
2023-05-04T05:25:19.944Z,55910.4
2023-05-04T05:26:20.105Z,56934.4
2023-05-04T05:27:20.190Z,57630.72
2023-05-04T05:28:20.344Z,57876.48
2023-05-04T05:29:20.547Z,58204.16
2023-05-04T05:30:21.325Z,57344
2023-05-04T05:31:20.887Z,57835.52
2023-05-04T05:32:21.513Z,58122.24
2023-05-04T05:33:21.172Z,57384.96
2023-05-04T05:34:21.291Z,56975.36
2023-05-04T05:35:21.448Z,56197.12
2023-05-04T05:36:21.586Z,55828.48
2023-05-04T05:37:21.747Z,54476.8
2023-05-04T05:38:21.897Z,53944.32
2023-05-04T05:39:22.060Z,55009.28
2023-05-04T05:40:22.124Z,54558.72
2023-05-04T05:41:22.265Z,55500.8
2023-05-04T05:42:22.943Z,54681.6
2023-05-04T05:43:22.562Z,54272
2023-05-04T05:44:22.706Z,48332.8
2023-05-04T05:45:23.601Z,52633.6
2023-05-04T05:46:23.064Z,55787.52
2023-05-04T05:47:23.178Z,57917.44
2023-05-04T05:48:23.331Z,59473.92
2023-05-04T05:49:23.485Z,60170.24
2023-05-04T05:50:23.566Z,61071.36
2023-05-04T05:51:23.658Z,61644.8
2023-05-04T05:52:23.813Z,60579.84
2023-05-04T05:53:24.012Z,61849.6
2023-05-04T05:54:24.222Z,62709.76
2023-05-04T05:55:24.369Z,64184.32
2023-05-04T05:56:24.559Z,57958.4
2023-05-04T05:57:24.687Z,63037.44
2023-05-04T05:58:24.810Z,64266.24
2023-05-04T05:59:24.933Z,62054.4
2023-05-04T06:00:25.633Z,67297.28
2023-05-04T06:01:25.232Z,69222.4
2023-05-04T06:02:26.119Z,69591.04
2023-05-04T06:03:25.644Z,55582.72
2023-05-04T06:04:25.677Z,62259.2
2023-05-04T06:05:25.753Z,67174.4
2023-05-04T06:06:25.891Z,66396.16
2023-05-04T06:07:26.032Z,69509.12
2023-05-04T06:08:26.198Z,73768.96
2023-05-04T06:09:26.347Z,70942.72
2023-05-04T06:10:26.502Z,70819.84
2023-05-04T06:11:26.663Z,73031.68
2023-05-04T06:12:26.764Z,75898.88
2023-05-04T06:13:26.926Z,75980.8
2023-05-04T06:14:27.062Z,77332.48
2023-05-04T06:15:27.225Z,75243.52
2023-05-04T06:16:27.403Z,76718.08
2023-05-04T06:17:27.487Z,77168.64
2023-05-04T06:18:27.599Z,77045.76
2023-05-04T06:19:29.034Z,77742.08
2023-05-04T06:20:27.959Z,75202.56
2023-05-04T06:21:28.038Z,71106.56
2023-05-04T06:22:28.137Z,72417.28
2023-05-04T06:23:28.290Z,71147.52
2023-05-04T06:24:28.498Z,71966.72
2023-05-04T06:25:28.584Z,73359.36
2023-05-04T06:26:28.731Z,66027.52
2023-05-04T06:27:28.922Z,68608
2023-05-04T06:28:29.030Z,72663.04
2023-05-04T06:29:29.705Z,69632
2023-05-04T06:30:29.406Z,72785.92
2023-05-04T06:31:30.420Z,74792.96
2023-05-04T06:32:29.697Z,73768.96
2023-05-04T06:33:29.775Z,74629.12
2023-05-04T06:34:29.960Z,76226.56
2023-05-04T06:35:30.075Z,70778.88
2023-05-04T06:36:30.251Z,71393.28
2023-05-04T06:37:30.386Z,80404.48
2023-05-04T06:38:30.551Z,80650.24
2023-05-04T06:39:30.690Z,81182.72
2023-05-04T06:40:30.844Z,81715.2
2023-05-04T06:41:30.993Z,82247.68
2023-05-04T06:42:31.161Z,82247.68
2023-05-04T06:43:31.297Z,82821.12
2023-05-04T06:44:31.897Z,83148.8
2023-05-04T06:45:31.658Z,80977.92
2023-05-04T06:46:31.739Z,80035.84
2023-05-04T06:47:31.994Z,82001.92
2023-05-04T06:48:32.027Z,78807.04
2023-05-04T06:49:32.161Z,81305.6
2023-05-04T06:50:32.315Z,80936.96
2023-05-04T06:51:32.461Z,79503.36
2023-05-04T06:52:32.606Z,74711.04
2023-05-04T06:53:32.774Z,66478.08
2023-05-04T06:54:32.956Z,65658.88
2023-05-04T06:55:32.998Z,74260.48
2023-05-04T06:56:33.109Z,71843.84
2023-05-04T06:57:33.283Z,77946.88
2023-05-04T06:58:33.390Z,82739.2
2023-05-04T06:59:34.033Z,83066.88
2023-05-04T07:00:33.708Z,83640.32
2023-05-04T07:01:33.903Z,84131.84
2023-05-04T07:02:33.996Z,81346.56
2023-05-04T07:03:34.174Z,79052.8
2023-05-04T07:04:34.287Z,84623.36
2023-05-04T07:05:34.429Z,84705.28
2023-05-04T07:06:34.606Z,87408.64
2023-05-04T07:07:34.739Z,89128.96
2023-05-04T07:08:34.891Z,85032.96
2023-05-04T07:09:35.055Z,85934.08
2023-05-04T07:10:35.194Z,82944
2023-05-04T07:11:35.346Z,83230.72
2023-05-04T07:12:35.467Z,81100.8
2023-05-04T07:13:35.619Z,85196.8
2023-05-04T07:14:36.362Z,88309.76
2023-05-04T07:15:35.946Z,87162.88
2023-05-04T07:16:36.055Z,88965.12
2023-05-04T07:17:36.161Z,85770.23
2023-05-04T07:18:36.257Z,80240.64
2023-05-04T07:19:36.382Z,84131.84
2023-05-04T07:20:36.510Z,83968
2023-05-04T07:21:36.666Z,80732.16
2023-05-04T07:22:36.804Z,85770.23
2023-05-04T07:23:36.950Z,84131.84
2023-05-04T07:24:37.064Z,79667.2
2023-05-04T07:25:37.217Z,80568.32
2023-05-04T07:26:37.321Z,80363.52
2023-05-04T07:27:37.490Z,80609.28
2023-05-04T07:28:37.620Z,82903.04
2023-05-04T07:29:38.248Z,86016
2023-05-04T07:30:37.923Z,86179.84
2023-05-04T07:31:38.106Z,88637.44
2023-05-04T07:32:38.217Z,84623.36
2023-05-04T07:33:38.374Z,76472.32
2023-05-04T07:34:45.394Z,78970.88
2023-05-04T07:35:38.695Z,80977.92
2023-05-04T07:36:39.877Z,83517.44
2023-05-04T07:37:38.986Z,85278.72
2023-05-04T07:38:39.142Z,85852.16
2023-05-04T07:39:39.280Z,64634.88
2023-05-04T07:40:39.441Z,80486.4
2023-05-04T07:41:39.603Z,79953.92
2023-05-04T07:42:39.732Z,80035.84
2023-05-04T07:43:39.877Z,78233.6
2023-05-04T07:44:40.469Z,80977.92
2023-05-04T07:45:40.193Z,82042.88
2023-05-04T07:46:40.348Z,82944
2023-05-04T07:47:40.493Z,82739.2
2023-05-04T07:48:40.557Z,82780.16
2023-05-04T07:49:40.695Z,81879.04
2023-05-04T07:50:40.848Z,80936.96
2023-05-04T07:51:41.017Z,82780.16
2023-05-04T07:52:41.143Z,84623.36
2023-05-04T07:53:41.333Z,86507.52
2023-05-04T07:54:41.484Z,82370.56
2023-05-04T07:55:41.628Z,85114.88
2023-05-04T07:56:41.775Z,88064
2023-05-04T07:57:41.905Z,91996.16
2023-05-04T07:58:42.043Z,90685.44
2023-05-04T07:59:42.627Z,89702.4
2023-05-04T08:00:42.291Z,85360.64
2023-05-04T08:01:44.067Z,77701.12
2023-05-04T08:02:42.681Z,79626.24
2023-05-04T08:03:42.737Z,78888.96
2023-05-04T08:04:42.869Z,76800
2023-05-04T08:05:43.010Z,80814.08
2023-05-04T08:06:43.139Z,84295.68
2023-05-04T08:07:43.291Z,82903.04
2023-05-04T08:08:43.434Z,79380.48
2023-05-04T08:09:43.593Z,77987.84
2023-05-04T08:10:43.730Z,84213.76
2023-05-04T08:11:43.836Z,91095.04
2023-05-04T08:12:44.022Z,91586.55
2023-05-04T08:13:44.140Z,85770.23
2023-05-04T08:14:44.975Z,85360.64
2023-05-04T08:15:44.487Z,92323.84
2023-05-04T08:16:44.640Z,76513.28
2023-05-04T08:17:44.765Z,79134.72
2023-05-04T08:18:44.917Z,78069.76
2023-05-04T08:19:45.050Z,87244.8
2023-05-04T08:20:45.195Z,83312.64
2023-05-04T08:21:45.527Z,89456.64
2023-05-04T08:22:45.506Z,90685.44
2023-05-04T08:23:45.616Z,92078.08
2023-05-04T08:24:45.774Z,94945.28
2023-05-04T08:25:45.899Z,92897.28
2023-05-04T08:26:52.545Z,84541.44
2023-05-04T08:27:46.174Z,81100.8
2023-05-04T08:28:46.321Z,79052.8
2023-05-04T08:29:46.895Z,81551.36
2023-05-04T08:30:46.578Z,79503.36
2023-05-04T08:31:46.771Z,86917.12
2023-05-04T08:32:46.857Z,90603.52
2023-05-04T08:33:46.933Z,93388.8
2023-05-04T08:34:47.091Z,94781.44
2023-05-04T08:35:47.233Z,95518.72
2023-05-04T08:36:47.420Z,94617.6
2023-05-04T08:37:47.559Z,95436.8
2023-05-04T08:38:47.636Z,91586.55
2023-05-04T08:39:47.791Z,91340.8
2023-05-04T08:40:50.025Z,87490.55
2023-05-04T08:41:48.044Z,85852.16
2023-05-04T08:42:48.194Z,86917.12
2023-05-04T08:43:48.346Z,91340.8
2023-05-04T08:44:48.953Z,93716.48
2023-05-04T08:45:48.697Z,91750.4
2023-05-04T08:46:48.802Z,88965.12
2023-05-04T08:47:49.035Z,87572.48
2023-05-04T08:48:49.124Z,90439.68
2023-05-04T08:49:49.224Z,89620.48
2023-05-04T08:50:49.319Z,86753.28
2023-05-04T08:51:49.452Z,86835.2
2023-05-04T08:52:49.627Z,88145.92
2023-05-04T08:53:49.766Z,88801.28
2023-05-04T08:54:49.920Z,92815.36
2023-05-04T08:55:50.018Z,89784.32
2023-05-04T08:56:50.166Z,87244.8
2023-05-04T08:57:51.229Z,84295.68
2023-05-04T08:58:50.482Z,82001.92
2023-05-04T08:59:51.059Z,83476.48
2023-05-04T09:00:50.820Z,80486.4
2023-05-04T09:01:50.945Z,78725.12
2023-05-04T09:02:51.075Z,80936.96
2023-05-04T09:03:51.336Z,82001.92
2023-05-04T09:04:51.270Z,85196.8
2023-05-04T09:05:51.368Z,85196.8
2023-05-04T09:06:51.535Z,83722.24
2023-05-04T09:07:51.655Z,83886.08
2023-05-04T09:08:51.803Z,85606.4
2023-05-04T09:09:51.945Z,86343.68
2023-05-04T09:10:52.093Z,84131.84
2023-05-04T09:11:52.275Z,81592.32
2023-05-04T09:12:52.386Z,79298.56
2023-05-04T09:13:52.422Z,79011.84
2023-05-04T09:14:52.577Z,79708.16
2023-05-04T09:15:52.684Z,81551.36
2023-05-04T09:16:52.876Z,83107.84
2023-05-04T09:17:57.584Z,80445.44
2023-05-04T09:18:53.118Z,78274.56
2023-05-04T09:19:53.279Z,78356.48
2023-05-04T09:20:53.375Z,77864.96
2023-05-04T09:21:53.505Z,77168.64
2023-05-04T09:22:53.637Z,83025.92
2023-05-04T09:23:53.791Z,83640.32
2023-05-04T09:24:53.903Z,81960.96
2023-05-04T09:25:54.143Z,81264.64
2023-05-04T09:26:54.282Z,80855.04
2023-05-04T09:27:54.455Z,81674.24
2023-05-04T09:28:54.581Z,79216.64
2023-05-04T09:29:55.346Z,77496.32
2023-05-04T09:31:55.018Z,78151.68
2023-05-04T09:32:55.257Z,75448.32
2023-05-04T09:33:55.309Z,79093.76
2023-05-04T09:34:55.441Z,80527.36
2023-05-04T09:35:55.572Z,76759.04
2023-05-04T09:36:55.723Z,79175.68
2023-05-04T09:37:55.891Z,72908.8
2023-05-04T09:38:55.978Z,73359.36
2023-05-04T09:39:56.195Z,75407.36
2023-05-04T09:40:56.285Z,72294.4
2023-05-04T09:41:56.443Z,79912.96
2023-05-04T09:42:56.586Z,78233.6
2023-05-04T09:43:56.733Z,78438.4
2023-05-04T09:44:57.426Z,81182.72
2023-05-04T09:45:57.095Z,80240.64
2023-05-04T09:46:57.183Z,76922.88
2023-05-04T09:47:57.379Z,77742.08
2023-05-04T09:48:57.502Z,78602.24
2023-05-04T09:49:57.657Z,81264.64
2023-05-04T09:50:57.775Z,82329.6
2023-05-04T09:51:57.932Z,79175.68
2023-05-04T09:52:58.010Z,80732.16
2023-05-04T09:53:58.156Z,79134.72
2023-05-04T09:54:58.306Z,74670.08
2023-05-04T09:56:00.686Z,74997.76
2023-05-04T09:56:58.618Z,77250.56
2023-05-04T09:57:58.765Z,76431.36
2023-05-04T09:58:58.881Z,74301.44
2023-05-04T09:59:59.434Z,78069.76
2023-05-04T10:00:59.118Z,68321.28
2023-05-04T10:02:04.757Z,73768.96
2023-05-04T10:02:59.405Z,73318.4
2023-05-04T10:03:59.543Z,73564.16
2023-05-04T10:04:59.706Z,73809.92
2023-05-04T10:05:59.789Z,74874.88
2023-05-04T10:06:59.938Z,63733.76
2023-05-04T10:08:00.130Z,65904.64
2023-05-04T10:09:00.193Z,66150.4
2023-05-04T10:10:00.336Z,62013.44
2023-05-04T10:11:00.464Z,69222.4
2023-05-04T10:12:00.752Z,69099.52
2023-05-04T10:13:00.773Z,68812.8
2023-05-04T10:14:00.873Z,68812.8
2023-05-04T10:15:01.449Z,66723.84
2023-05-04T10:16:01.180Z,66846.72
2023-05-04T10:17:01.297Z,62709.76
2023-05-04T10:18:01.499Z,65413.12
2023-05-04T10:19:01.605Z,68198.4
2023-05-04T10:20:01.718Z,74219.52
2023-05-04T10:21:01.851Z,74014.72
2023-05-04T10:22:01.998Z,72212.48
2023-05-04T10:23:02.188Z,72007.68
2023-05-04T10:24:02.319Z,67665.92
2023-05-04T10:25:02.568Z,64020.48
2023-05-04T10:26:02.563Z,61972.48
2023-05-04T10:27:02.663Z,67502.08
2023-05-04T10:28:02.797Z,68526.08
2023-05-04T10:29:03.005Z,66764.8
2023-05-04T10:30:03.598Z,63856.64
2023-05-04T10:31:03.226Z,59269.12
2023-05-04T10:32:03.433Z,64143.36
2023-05-04T10:33:03.542Z,67624.96
2023-05-04T10:34:03.641Z,67665.92
2023-05-04T10:35:03.960Z,66682.88
2023-05-04T10:36:03.930Z,66560
2023-05-04T10:37:04.016Z,61644.8
2023-05-04T10:38:04.193Z,58327.04
2023-05-04T10:39:04.333Z,57589.76
2023-05-04T10:40:05.501Z,60866.56
2023-05-04T10:41:04.620Z,61931.52
2023-05-04T10:42:04.809Z,61399.04
2023-05-04T10:43:04.901Z,60170.24
2023-05-04T10:44:05.046Z,63160.32
2023-05-04T10:45:05.820Z,65658.88
2023-05-04T10:46:05.279Z,63528.96
2023-05-04T10:47:05.412Z,62218.24
2023-05-04T10:48:05.513Z,62300.16
2023-05-04T10:49:05.592Z,58122.24
2023-05-04T10:50:05.731Z,57958.4
2023-05-04T10:51:05.848Z,58122.24
2023-05-04T10:52:05.928Z,56442.88
2023-05-04T10:53:06.120Z,56238.08
2023-05-04T10:54:06.213Z,57057.28
2023-05-04T10:55:06.494Z,56893.44
2023-05-04T10:56:06.485Z,59105.28
2023-05-04T10:57:06.599Z,60907.52
2023-05-04T10:58:06.811Z,59555.84
2023-05-04T10:59:06.921Z,61358.08
2023-05-04T11:00:07.566Z,60702.72
2023-05-04T11:01:07.234Z,60170.24
2023-05-04T11:02:07.422Z,59310.08
2023-05-04T11:03:07.657Z,55582.72
2023-05-04T11:04:07.691Z,55377.92
2023-05-04T11:05:08.107Z,52920.32
2023-05-04T11:06:07.976Z,54886.4
2023-05-04T11:07:08.125Z,58163.2
2023-05-04T11:08:08.287Z,57958.4
2023-05-04T11:09:08.428Z,55582.72
2023-05-04T11:10:08.591Z,55459.84
2023-05-04T11:11:08.747Z,54231.04
2023-05-04T11:12:08.879Z,53780.48
2023-05-04T11:13:09.067Z,53493.76
2023-05-04T11:14:09.203Z,54026.24
2023-05-04T11:15:09.853Z,53575.68
2023-05-04T11:16:09.522Z,51732.48
2023-05-04T11:17:20.131Z,50749.44
2023-05-04T11:18:09.809Z,50298.88
2023-05-04T11:19:09.967Z,48005.12
2023-05-04T11:20:10.078Z,49643.52
2023-05-04T11:21:10.201Z,48701.44
2023-05-04T11:22:10.371Z,49602.56
2023-05-04T11:23:10.525Z,48824.32
2023-05-04T11:24:10.654Z,48865.28
2023-05-04T11:25:10.794Z,49192.96
2023-05-04T11:26:10.950Z,48824.32
2023-05-04T11:27:11.051Z,48742.4
2023-05-04T11:28:11.209Z,45506.56
2023-05-04T11:29:11.349Z,45260.8
2023-05-04T11:30:12.064Z,46653.44
2023-05-04T11:31:11.784Z,47636.48
2023-05-04T11:32:11.947Z,47964.16
2023-05-04T11:33:12.079Z,47923.2
2023-05-04T11:34:12.228Z,45957.12
2023-05-04T11:35:12.379Z,43991.04
2023-05-04T11:36:12.526Z,43663.36
2023-05-04T11:37:12.718Z,42803.2
2023-05-04T11:38:12.813Z,45465.6
2023-05-04T11:39:12.991Z,47390.72
2023-05-04T11:40:13.302Z,48619.52
2023-05-04T11:41:13.317Z,48209.92
2023-05-04T11:42:13.406Z,46653.44
2023-05-04T11:43:13.532Z,46202.88
2023-05-04T11:44:13.633Z,45957.12
2023-05-04T11:45:14.377Z,44400.64
2023-05-04T11:46:14.012Z,42762.24
2023-05-04T11:47:14.048Z,43622.4
2023-05-04T11:48:15.025Z,43089.92
2023-05-04T11:49:14.382Z,44810.24
2023-05-04T11:50:14.572Z,45752.32
2023-05-04T11:51:14.658Z,45998.08
2023-05-04T11:52:14.802Z,45342.72
2023-05-04T11:53:14.905Z,44154.88
2023-05-04T11:54:15.045Z,43130.88
2023-05-04T11:55:15.227Z,42680.32
2023-05-04T11:56:15.352Z,41308.16
2023-05-04T11:57:15.502Z,40529.92
2023-05-04T11:58:15.645Z,38318.08
2023-05-04T11:59:15.809Z,38809.6
2023-05-04T12:00:16.405Z,38809.6
2023-05-04T12:01:16.124Z,38952.96
2023-05-04T12:02:16.316Z,39178.24
2023-05-04T12:03:16.511Z,38584.32
2023-05-04T12:04:16.577Z,37744.64
2023-05-04T12:05:16.693Z,36577.28
2023-05-04T12:06:16.819Z,35266.56
2023-05-04T12:07:16.932Z,35225.6
2023-05-04T12:08:17.068Z,35082.24
2023-05-04T12:09:17.237Z,35717.12
2023-05-04T12:10:17.391Z,37212.16
2023-05-04T12:11:17.533Z,38072.32
2023-05-04T12:12:17.679Z,38809.6
2023-05-04T12:13:17.977Z,38666.24
2023-05-04T12:14:17.937Z,38891.52
2023-05-04T12:15:18.528Z,38666.24
2023-05-04T12:17:18.322Z,38707.2
2023-05-04T12:18:18.473Z,38236.16
2023-05-04T12:19:18.569Z,36392.96
2023-05-04T12:20:19.347Z,35082.24
2023-05-04T12:21:18.926Z,34201.6